Time;durP1;ratioP1;P1;durP2;ratioP2;P2;SDS_P1;SDS_P2;PMS_P1;PMS_P2;Temp;Humidity;BMP_temperature;BMP_pressure;BME280_temperature;BME280_humidity;BME280_pressure;Samples;Min_cycle;Max_cycle;Signal;HPM_P1;HPM_P2
2022/10/17 00:00:54;;;;;;;0.00;0.00;;;17.10;90.90;;;;;;4187803;28;20044;-68
2022/10/17 00:03:36;;;;;;;0.00;0.00;;;17.10;91.00;;;;;;4158131;28;20291;-67
2022/10/17 00:06:18;;;;;;;0.00;0.00;;;17.00;90.90;;;;;;4162145;28;20048;-68
2022/10/17 00:08:59;;;;;;;0.00;0.00;;;17.10;91.00;;;;;;4161508;28;20060;-68
2022/10/17 00:11:39;;;;;;;0.00;0.00;;;17.00;91.00;;;;;;4175934;28;20063;-68
2022/10/17 00:14:20;;;;;;;0.00;0.00;;;17.00;91.00;;;;;;4166475;28;20077;-68
2022/10/17 00:17:01;;;;;;;0.70;0.70;;;17.10;91.00;;;;;;4173039;28;20377;-68
2022/10/17 00:19:43;;;;;;;0.00;0.00;;;17.00;90.90;;;;;;4178675;28;20051;-68
2022/10/17 00:22:25;;;;;;;0.00;0.00;;;17.00;91.00;;;;;;4178574;28;20079;-69
2022/10/17 00:25:07;;;;;;;0.00;0.00;;;17.10;91.00;;;;;;4178661;28;20091;-68
2022/10/17 00:27:48;;;;;;;7.13;1.30;;;17.00;91.00;;;;;;4193147;28;20392;-68
2022/10/17 00:30:29;;;;;;;0.00;0.00;;;17.00;91.00;;;;;;4191488;28;20063;-68
2022/10/17 00:33:10;;;;;;;0.03;0.03;;;17.00;91.00;;;;;;4193366;28;20048;-68
2022/10/17 00:35:51;;;;;;;0.03;0.03;;;17.00;91.40;;;;;;4165348;28;20051;-68
2022/10/17 00:38:33;;;;;;;0.00;0.00;;;17.00;91.00;;;;;;4194031;28;20524;-68
2022/10/17 00:41:17;;;;;;;0.00;0.00;;;17.10;91.10;;;;;;4193298;28;20074;-68
2022/10/17 00:54:24;;;;;;;0.00;0.00;;;17.00;91.10;;;;;;4102316;24;20061;-63
2022/10/17 00:57:05;;;;;;;0.00;0.00;;;17.00;91.10;;;;;;3999101;29;20056;-62
2022/10/17 00:59:50;;;;;;;0.00;0.00;;;17.00;91.10;;;;;;4006541;29;20519;-63
2022/10/17 01:02:31;;;;;;;0.00;0.00;;;17.00;91.00;;;;;;4018149;29;20181;-63
2022/10/17 01:05:12;;;;;;;0.00;0.00;;;17.00;91.50;;;;;;4017842;29;20137;-64
2022/10/17 01:07:54;;;;;;;0.00;0.00;;;17.00;91.10;;;;;;4007463;29;20060;-65
2022/10/17 01:10:40;;;;;;;;;;;17.00;91.10;;;;;;4018237;29;20056;-65
2022/10/17 01:13:28;;;;;;;0.00;0.00;;;17.00;91.20;;;;;;4020141;29;19935;-64
2022/10/17 01:16:16;;;;;;;0.00;0.00;;;16.90;91.10;;;;;;4010705;29;20076;-64
2022/10/17 01:19:08;;;;;;;0.00;0.00;;;16.90;91.10;;;;;;4021214;29;20051;-64
2022/10/17 01:21:55;;;;;;;0.00;0.00;;;16.90;91.20;;;;;;4018737;29;20064;-64
2022/10/17 01:24:52;;;;;;;0.00;0.00;;;16.90;91.20;;;;;;4007832;29;20048;-64
2022/10/17 01:28:08;;;;;;;0.00;0.00;;;16.90;91.20;;;;;;3990310;29;20226;-64
2022/10/17 01:31:03;;;;;;;0.00;0.00;;;16.90;91.20;;;;;;4017339;29;20061;-64
2022/10/17 01:33:48;;;;;;;0.00;0.00;;;16.90;91.20;;;;;;3992525;29;20367;-64
2022/10/17 01:36:39;;;;;;;0.17;0.17;;;16.90;91.20;;;;;;3999951;29;20141;-64
2022/10/17 01:39:29;;;;;;;0.00;0.00;;;16.90;91.20;;;;;;4018113;29;20499;-64
2022/10/17 01:42:17;;;;;;;0.00;0.00;;;16.90;91.30;;;;;;4006082;29;20133;-64
2022/10/17 01:45:03;;;;;;;0.00;0.00;;;16.90;91.30;;;;;;4016851;29;20060;-64
2022/10/17 01:47:49;;;;;;;0.32;0.32;;;16.90;91.30;;;;;;4020244;29;20608;-65
2022/10/17 01:50:34;;;;;;;0.22;0.22;;;16.90;91.30;;;;;;4008156;29;20083;-64
2022/10/17 01:53:19;;;;;;;0.00;0.00;;;16.90;91.30;;;;;;4005509;29;20064;-65
2022/10/17 01:56:02;;;;;;;0.00;0.00;;;16.90;91.30;;;;;;3995266;29;20060;-65
2022/10/17 01:58:47;;;;;;;0.20;0.20;;;16.90;91.30;;;;;;4005638;29;20386;-64
2022/10/17 02:01:30;;;;;;;0.00;0.00;;;16.90;91.30;;;;;;4004902;29;20138;-64
2022/10/17 02:04:15;;;;;;;0.00;0.00;;;16.90;91.30;;;;;;3993964;29;20069;-64
2022/10/17 02:06:56;;;;;;;0.45;0.45;;;16.90;91.70;;;;;;4000683;29;20932;-64
2022/10/17 02:09:37;;;;;;;0.00;0.00;;;16.90;91.40;;;;;;3990533;29;20061;-64
2022/10/17 02:12:34;;;;;;;0.00;0.00;;;16.90;91.40;;;;;;4000955;29;20202;-65
2022/10/17 02:15:33;;;;;;;0.00;0.00;;;16.90;91.40;;;;;;4000494;29;20052;-64
2022/10/17 02:18:23;;;;;;;0.00;0.00;;;16.90;91.40;;;;;;3993696;29;20205;-64
2022/10/17 02:21:11;;;;;;;0.00;0.00;;;16.90;91.40;;;;;;3990365;29;20060;-64
2022/10/17 02:23:58;;;;;;;0.00;0.00;;;16.90;91.40;;;;;;4005729;29;20057;-64
2022/10/17 02:26:45;;;;;;;0.00;0.00;;;16.90;91.40;;;;;;4016446;29;20074;-65
2022/10/17 02:29:30;;;;;;;0.00;0.00;;;16.90;91.40;;;;;;4017008;29;20069;-64
2022/10/17 02:32:19;;;;;;;0.00;0.00;;;16.90;91.40;;;;;;4004966;29;20113;-65
2022/10/17 02:35:03;;;;;;;0.00;0.00;;;16.90;91.40;;;;;;4017630;29;20048;-64
2022/10/17 02:37:47;;;;;;;0.00;0.00;;;16.90;91.40;;;;;;4017181;29;20114;-64
2022/10/17 02:40:30;;;;;;;0.00;0.00;;;16.90;91.40;;;;;;4005369;29;20745;-64
2022/10/17 02:43:12;;;;;;;0.98;0.98;;;16.90;91.40;;;;;;4005120;29;20053;-64
2022/10/17 02:45:54;;;;;;;0.00;0.00;;;16.90;91.40;;;;;;3994425;29;20100;-64
2022/10/17 02:48:40;;;;;;;0.00;0.00;;;16.90;91.40;;;;;;4005043;29;20507;-64
2022/10/17 02:51:28;;;;;;;0.20;0.20;;;16.90;91.40;;;;;;4004635;29;20106;-64
2022/10/17 02:54:17;;;;;;;0.00;0.00;;;16.90;91.40;;;;;;4004939;29;20051;-64
2022/10/17 02:57:03;;;;;;;0.00;0.00;;;16.90;91.40;;;;;;4004711;29;20056;-64
2022/10/17 02:59:45;;;;;;;0.03;0.03;;;16.80;91.40;;;;;;4012419;29;20052;-64
2022/10/17 03:02:27;;;;;;;0.00;0.00;;;16.80;91.40;;;;;;4020157;29;20524;-65
2022/10/17 03:05:09;;;;;;;0.00;0.00;;;16.90;91.40;;;;;;4004868;29;20136;-63
2022/10/17 03:07:50;;;;;;;0.35;0.35;;;16.90;91.40;;;;;;4015903;29;20056;-64
2022/10/17 03:10:33;;;;;;;0.30;0.30;;;16.80;91.40;;;;;;4004605;29;20571;-64
2022/10/17 03:13:14;;;;;;;0.00;0.00;;;16.80;91.40;;;;;;4007699;29;20420;-64
2022/10/17 03:15:56;;;;;;;0.00;0.00;;;16.80;91.40;;;;;;4031406;29;20071;-65
2022/10/17 03:18:37;;;;;;;0.38;0.38;;;16.80;91.40;;;;;;4019618;29;20420;-64
2022/10/17 03:21:18;;;;;;;0.00;0.00;;;16.80;91.50;;;;;;4019914;29;20197;-64
2022/10/17 03:23:59;;;;;;;0.03;0.03;;;16.90;91.50;;;;;;4019398;29;20375;-64
2022/10/17 03:26:42;;;;;;;0.47;0.47;;;16.80;91.40;;;;;;4019252;29;20196;-64
2022/10/17 03:29:24;;;;;;;0.10;0.10;;;16.80;91.50;;;;;;4019039;29;20064;-64
2022/10/17 03:32:06;;;;;;;0.00;0.00;;;16.80;91.40;;;;;;4005575;29;20060;-64
2022/10/17 03:34:47;;;;;;;0.00;0.00;;;16.80;91.50;;;;;;4005450;29;20052;-64
2022/10/17 03:37:28;;;;;;;0.00;0.00;;;16.80;91.50;;;;;;4003993;29;20517;-64
2022/10/17 03:40:10;;;;;;;0.30;0.30;;;16.80;91.50;;;;;;4014163;29;20159;-64
2022/10/17 03:42:52;;;;;;;0.00;0.00;;;16.80;91.50;;;;;;4016690;29;20072;-64
2022/10/17 03:45:33;;;;;;;0.00;0.00;;;16.80;91.50;;;;;;4015934;29;20099;-64
2022/10/17 03:48:14;;;;;;;0.00;0.00;;;16.80;91.60;;;;;;4004342;29;20060;-64
2022/10/17 03:51:00;;;;;;;0.00;0.00;;;16.80;91.60;;;;;;4003735;29;20476;-64
2022/10/17 03:53:42;;;;;;;0.00;0.00;;;16.80;91.60;;;;;;4003645;29;20168;-64
2022/10/17 03:56:24;;;;;;;0.00;0.00;;;16.80;91.60;;;;;;4006057;29;20052;-64
2022/10/17 03:59:14;;;;;;;0.00;0.00;;;16.80;91.60;;;;;;4003924;29;20209;-64
2022/10/17 04:02:01;;;;;;;0.00;0.00;;;16.80;91.60;;;;;;3990339;29;20061;-64
2022/10/17 04:04:42;;;;;;;0.00;0.00;;;16.80;91.60;;;;;;4007501;29;20512;-64
2022/10/17 04:07:23;;;;;;;0.00;0.00;;;16.80;91.60;;;;;;4016686;29;20057;-64
2022/10/17 04:10:11;;;;;;;0.00;0.00;;;16.80;91.60;;;;;;4019171;29;20056;-64
2022/10/17 04:12:52;;;;;;;0.10;0.10;;;16.80;91.60;;;;;;4030569;29;20104;-65
2022/10/17 04:15:35;;;;;;;0.00;0.00;;;16.80;91.60;;;;;;4019256;29;20103;-64
2022/10/17 04:18:16;;;;;;;0.00;0.00;;;16.80;91.60;;;;;;3991606;29;20061;-64
2022/10/17 04:20:57;;;;;;;1.23;0.32;;;16.80;91.70;;;;;;3999537;29;20098;-64
2022/10/17 04:23:38;;;;;;;;;;;16.80;91.70;;;;;;4004330;29;20109;-64
2022/10/17 04:26:29;;;;;;;0.00;0.00;;;16.80;91.70;;;;;;4004290;29;19931;-64
2022/10/17 04:29:12;;;;;;;0.00;0.00;;;16.80;91.70;;;;;;4005120;29;20146;-64
2022/10/17 04:31:57;;;;;;;0.00;0.00;;;16.80;91.70;;;;;;3996273;29;20098;-65
2022/10/17 04:34:50;;;;;;;0.00;0.00;;;16.70;91.70;;;;;;4006242;29;20060;-64
2022/10/17 04:37:34;;;;;;;0.00;0.00;;;16.80;91.80;;;;;;4018960;29;20384;-64
2022/10/17 04:40:21;;;;;;;0.00;0.00;;;16.80;91.90;;;;;;4018935;29;20205;-64
2022/10/17 04:43:04;;;;;;;0.08;0.08;;;16.70;91.80;;;;;;4018603;29;20117;-63
2022/10/17 04:45:48;;;;;;;0.00;0.00;;;16.70;92.20;;;;;;4003973;29;20167;-64
2022/10/17 04:48:31;;;;;;;0.00;0.00;;;16.70;91.80;;;;;;4017399;29;20424;-64
2022/10/17 04:51:14;;;;;;;0.00;0.00;;;16.70;91.80;;;;;;4020988;29;20084;-64
2022/10/17 04:54:21;;;;;;;0.00;0.00;;;16.70;91.90;;;;;;4032913;29;20526;-64
2022/10/17 04:57:10;;;;;;;0.22;0.15;;;16.70;91.90;;;;;;4021434;29;20060;-63
2022/10/17 04:59:52;;;;;;;0.00;0.00;;;16.70;91.90;;;;;;4006613;29;20088;-64
2022/10/17 05:02:58;;;;;;;0.17;0.17;;;16.70;91.90;;;;;;3995561;29;20053;-64
2022/10/17 05:05:42;;;;;;;0.10;0.10;;;16.70;91.90;;;;;;4006151;29;20068;-64
2022/10/17 05:08:24;;;;;;;0.20;0.20;;;16.70;91.90;;;;;;4006409;29;20056;-64
2022/10/17 05:11:06;;;;;;;0.10;0.10;;;16.70;91.90;;;;;;4032643;29;20550;-64
2022/10/17 05:13:51;;;;;;;0.00;0.00;;;16.70;92.00;;;;;;4033037;29;20079;-64
2022/10/17 05:16:31;;;;;;;0.00;0.00;;;16.70;92.00;;;;;;4021662;29;20190;-64
2022/10/17 05:19:13;;;;;;;0.57;0.57;;;16.70;92.00;;;;;;4021748;29;20060;-64
2022/10/17 05:21:59;;;;;;;0.10;0.10;;;16.70;92.10;;;;;;4005969;29;20106;-64
2022/10/17 05:24:41;;;;;;;0.00;0.00;;;16.70;92.10;;;;;;4020297;29;20140;-64
2022/10/17 05:27:24;;;;;;;0.10;0.10;;;16.70;92.10;;;;;;4021272;29;20136;-67
2022/10/17 05:30:06;;;;;;;0.00;0.00;;;16.70;92.20;;;;;;4021365;29;20594;-63
2022/10/17 05:32:51;;;;;;;0.00;0.00;;;16.70;92.40;;;;;;4021417;29;20226;-63
2022/10/17 05:35:32;;;;;;;0.00;0.00;;;16.80;92.50;;;;;;4017654;29;20064;-63
2022/10/17 05:38:15;;;;;;;0.10;0.10;;;16.80;92.40;;;;;;4017946;29;20136;-64
2022/10/17 05:40:58;;;;;;;2.05;1.85;;;16.80;92.30;;;;;;4018679;29;20499;-64
2022/10/17 05:43:40;;;;;;;4.13;0.75;;;16.80;92.20;;;;;;4019418;29;20048;-63
2022/10/17 05:46:21;;;;;;;0.13;0.13;;;16.80;92.60;;;;;;4020810;29;20549;-64
2022/10/17 05:49:02;;;;;;;0.00;0.00;;;16.80;92.10;;;;;;4020988;29;20064;-64
2022/10/17 05:51:50;;;;;;;0.43;0.43;;;16.80;92.60;;;;;;4020552;29;20154;-64
2022/10/17 05:54:33;;;;;;;0.88;0.88;;;16.80;92.20;;;;;;4031429;29;20056;-64
2022/10/17 05:57:14;;;;;;;11.18;1.65;;;16.80;92.20;;;;;;4007680;29;20190;-63
2022/10/17 05:59:56;;;;;;;5.72;1.40;;;16.80;92.20;;;;;;4019464;29;20128;-63
2022/10/17 06:02:36;;;;;;;0.10;0.10;;;16.80;92.20;;;;;;4031406;29;20052;-64
2022/10/17 06:05:18;;;;;;;0.00;0.00;;;16.80;92.20;;;;;;4005296;29;20544;-64
2022/10/17 06:08:00;;;;;;;0.00;0.00;;;16.80;92.20;;;;;;4018772;29;20602;-64
2022/10/17 06:10:47;;;;;;;0.00;0.00;;;16.80;92.20;;;;;;4009770;29;20104;-63
2022/10/17 06:13:29;;;;;;;0.00;0.00;;;16.80;92.20;;;;;;4020358;29;20069;-64
2022/10/17 06:16:13;;;;;;;0.00;0.00;;;16.80;92.30;;;;;;4020479;29;20503;-64
2022/10/17 06:18:54;;;;;;;1.10;1.10;;;16.80;92.30;;;;;;4020496;29;20128;-63
2022/10/17 06:21:37;;;;;;;0.00;0.00;;;16.70;92.20;;;;;;4020298;29;20511;-63
2022/10/17 06:24:23;;;;;;;1.10;1.08;;;16.80;92.30;;;;;;4019809;29;20399;-63
2022/10/17 06:27:07;;;;;;;0.10;0.10;;;16.80;92.30;;;;;;4016518;29;20056;-63
2022/10/17 06:29:50;;;;;;;0.22;0.22;;;16.70;92.30;;;;;;4020457;29;20136;-63
2022/10/17 06:32:32;;;;;;;0.35;0.35;;;16.80;92.30;;;;;;4005239;29;20065;-63
2022/10/17 06:35:13;;;;;;;0.00;0.00;;;16.80;92.30;;;;;;4004837;29;20074;-63
2022/10/17 06:37:54;;;;;;;0.00;0.00;;;16.70;92.30;;;;;;4005291;29;20056;-63
2022/10/17 06:40:36;;;;;;;0.10;0.10;;;16.70;92.30;;;;;;3994505;29;20055;-63
2022/10/17 06:43:18;;;;;;;0.00;0.00;;;16.70;92.30;;;;;;4005062;29;20064;-63
2022/10/17 06:46:11;;;;;;;0.00;0.00;;;16.70;92.30;;;;;;4004718;29;20456;-63
2022/10/17 06:49:04;;;;;;;0.47;0.47;;;16.70;92.70;;;;;;4016291;29;20056;-63
2022/10/17 06:51:56;;;;;;;2.13;1.65;;;16.70;92.30;;;;;;4019846;29;20076;-63
2022/10/17 06:54:55;;;;;;;0.00;0.00;;;16.70;92.30;;;;;;4019669;29;20080;-63
2022/10/17 06:57:54;;;;;;;0.00;0.00;;;16.70;92.30;;;;;;4030439;29;20099;-63
2022/10/17 07:00:59;;;;;;;0.00;0.00;;;16.70;92.30;;;;;;4019492;29;20064;-63
2022/10/17 07:03:42;;;;;;;2.08;1.25;;;16.70;92.40;;;;;;4030312;29;20163;-64
2022/10/17 07:06:25;;;;;;;0.00;0.00;;;16.70;92.40;;;;;;4016995;29;20071;-64
2022/10/17 07:09:08;;;;;;;0.32;0.30;;;16.70;92.40;;;;;;4006213;29;20051;-64
2022/10/17 07:11:50;;;;;;;0.00;0.00;;;16.80;92.40;;;;;;4017848;29;20474;-64
2022/10/17 07:14:31;;;;;;;0.38;0.38;;;16.70;92.40;;;;;;4019107;29;20672;-63
2022/10/17 07:17:14;;;;;;;0.60;0.60;;;16.70;92.40;;;;;;4011125;29;20068;-64
2022/10/17 07:19:55;;;;;;;0.00;0.00;;;16.80;92.50;;;;;;4010099;29;20064;-64
2022/10/17 07:22:37;;;;;;;;;;;16.70;92.40;;;;;;4019744;29;20525;-63
2022/10/17 07:25:18;;;;;;;0.00;0.00;;;16.80;92.40;;;;;;4015697;29;19931;-61
2022/10/17 07:28:05;;;;;;;0.20;0.20;;;16.70;92.40;;;;;;4007682;29;20048;-63
2022/10/17 07:30:46;;;;;;;0.10;0.10;;;16.70;92.40;;;;;;4018909;29;20205;-64
2022/10/17 07:33:32;;;;;;;0.00;0.00;;;16.70;92.40;;;;;;4029931;29;20063;-63
2022/10/17 07:36:13;;;;;;;0.65;0.65;;;16.80;92.50;;;;;;4017802;29;20101;-63
2022/10/17 07:38:54;;;;;;;;;;;16.80;92.50;;;;;;4020078;29;20059;-63
2022/10/17 07:41:36;;;;;;;0.00;0.00;;;16.80;92.50;;;;;;4018891;29;19931;-63
2022/10/17 07:44:17;;;;;;;0.00;0.00;;;16.80;92.40;;;;;;4030950;29;20401;-63
2022/10/17 07:47:02;;;;;;;0.00;0.00;;;16.80;92.40;;;;;;4020281;29;20064;-63
2022/10/17 07:49:44;;;;;;;0.73;0.73;;;16.80;92.40;;;;;;4019217;29;20132;-63
2022/10/17 07:52:25;;;;;;;0.13;0.13;;;16.80;92.40;;;;;;4030348;29;20393;-63
2022/10/17 07:55:08;;;;;;;0.00;0.00;;;16.80;92.40;;;;;;4030113;29;20189;-62
2022/10/17 07:57:49;;;;;;;1.88;1.05;;;16.80;92.40;;;;;;4018672;29;20148;-63
2022/10/17 08:00:30;;;;;;;0.20;0.20;;;16.80;92.50;;;;;;4030935;29;20059;-63
2022/10/17 08:03:11;;;;;;;0.00;0.00;;;16.80;92.80;;;;;;4030539;29;20060;-63
2022/10/17 08:05:57;;;;;;;0.03;0.03;;;16.80;92.50;;;;;;4019031;29;20095;-63
2022/10/17 08:08:38;;;;;;;0.03;0.03;;;16.80;92.80;;;;;;4002153;29;20081;-63
2022/10/17 08:11:20;;;;;;;1.17;1.08;;;16.80;92.50;;;;;;4015650;29;20139;-63
2022/10/17 08:14:00;;;;;;;0.00;0.00;;;16.90;92.90;;;;;;4015520;29;20105;-63
2022/10/17 08:16:42;;;;;;;0.98;0.52;;;16.90;92.50;;;;;;4017248;29;20685;-61
2022/10/17 08:19:23;;;;;;;;;;;16.90;92.50;;;;;;4009231;29;20068;-61
2022/10/17 08:22:05;;;;;;;0.00;0.00;;;16.90;92.50;;;;;;4030618;29;19934;-61
2022/10/17 08:24:46;;;;;;;0.00;0.00;;;16.90;92.40;;;;;;4003427;29;20052;-61
2022/10/17 08:27:27;;;;;;;0.00;0.00;;;16.90;92.40;;;;;;4018242;29;20067;-60
2022/10/17 08:30:09;;;;;;;;;;;16.90;92.40;;;;;;4018586;29;20281;-60
2022/10/17 08:32:50;;;;;;;;;;;17.00;92.50;;;;;;4006289;29;19995;-61
2022/10/17 08:35:31;;;;;;;1.33;0.98;;;16.90;92.40;;;;;;4015261;29;19939;-61
2022/10/17 08:38:13;;;;;;;0.35;0.35;;;16.90;92.40;;;;;;4030916;29;20075;-61
2022/10/17 08:40:57;;;;;;;0.00;0.00;;;16.90;92.50;;;;;;4016367;29;20198;-61
2022/10/17 08:43:51;;;;;;;0.00;0.00;;;17.00;92.50;;;;;;4015571;29;20076;-61
2022/10/17 08:46:37;;;;;;;0.00;0.00;;;17.00;92.60;;;;;;4015115;29;20568;-62
2022/10/17 08:49:29;;;;;;;0.00;0.00;;;17.00;92.60;;;;;;4018599;29;20048;-60
2022/10/17 08:52:18;;;;;;;0.60;0.60;;;17.00;92.60;;;;;;4031184;29;20052;-60
2022/10/17 08:55:01;;;;;;;2.67;2.28;;;17.00;92.60;;;;;;4025127;29;20060;-62
2022/10/17 08:57:43;;;;;;;0.00;0.00;;;17.00;92.60;;;;;;4008077;29;20146;-62
2022/10/17 09:00:25;;;;;;;0.00;0.00;;;17.00;93.00;;;;;;4030791;29;20071;-63
2022/10/17 09:03:20;;;;;;;0.47;0.47;;;17.00;92.70;;;;;;4029469;29;20128;-62
2022/10/17 09:06:12;;;;;;;0.00;0.00;;;17.00;92.70;;;;;;4030276;29;20079;-62
2022/10/17 09:09:05;;;;;;;0.00;0.00;;;17.00;92.80;;;;;;4003632;29;20060;-63
2022/10/17 09:12:02;;;;;;;0.40;0.40;;;17.10;92.80;;;;;;4015151;29;20059;-63
2022/10/17 09:15:04;;;;;;;0.17;0.17;;;17.10;92.90;;;;;;4017524;29;20060;-61
2022/10/17 09:17:51;;;;;;;0.20;0.20;;;17.10;92.90;;;;;;4029676;29;20419;-65
2022/10/17 09:20:36;;;;;;;0.43;0.43;;;17.10;92.90;;;;;;4029587;29;20048;-63
2022/10/17 09:23:21;;;;;;;0.38;0.38;;;17.10;93.00;;;;;;4027879;29;20055;-63
2022/10/17 09:26:02;;;;;;;0.00;0.00;;;17.10;93.00;;;;;;4029561;29;20112;-63
2022/10/17 09:28:46;;;;;;;0.00;0.00;;;17.10;93.00;;;;;;4029677;29;20067;-63
2022/10/17 09:31:34;;;;;;;0.00;0.00;;;17.10;93.10;;;;;;4029625;29;20060;-63
2022/10/17 09:34:16;;;;;;;0.00;0.00;;;17.10;93.10;;;;;;4030038;29;20143;-63
2022/10/17 09:36:59;;;;;;;0.65;0.65;;;17.10;93.50;;;;;;4016873;29;20056;-64
2022/10/17 09:39:40;;;;;;;0.00;0.00;;;17.20;93.20;;;;;;4029392;29;20055;-64
2022/10/17 09:42:26;;;;;;;;;;;17.20;93.30;;;;;;4030334;29;20077;-64
2022/10/17 09:45:18;;;;;;;0.00;0.00;;;17.20;93.30;;;;;;4029320;29;20042;-64
2022/10/17 09:48:07;;;;;;;0.00;0.00;;;17.20;93.40;;;;;;4029252;29;20139;-64
2022/10/17 09:50:49;;;;;;;0.00;0.00;;;17.20;93.40;;;;;;4029395;29;20072;-64
2022/10/17 09:53:40;;;;;;;0.40;0.40;;;17.20;93.50;;;;;;4029291;29;20059;-64
2022/10/17 09:56:21;;;;;;;0.00;0.00;;;17.20;93.60;;;;;;4028958;29;20128;-64
2022/10/17 09:59:02;;;;;;;1.25;1.15;;;17.20;93.60;;;;;;4029314;29;20051;-64
2022/10/17 10:01:44;;;;;;;0.00;0.00;;;17.20;93.60;;;;;;4018144;29;20048;-64
2022/10/17 10:04:25;;;;;;;0.00;0.00;;;17.30;94.20;;;;;;4029707;29;20068;-64
2022/10/17 10:07:13;;;;;;;0.47;0.47;;;17.30;94.10;;;;;;4017533;29;20068;-64
2022/10/17 10:09:54;;;;;;;0.40;0.40;;;17.30;93.80;;;;;;4029786;29;20064;-64
2022/10/17 10:12:39;;;;;;;0.70;0.70;;;17.30;93.80;;;;;;4029608;29;20052;-64
2022/10/17 10:15:32;;;;;;;0.00;0.00;;;17.30;93.80;;;;;;4029381;29;20068;-64
2022/10/17 10:18:33;;;;;;;0.00;0.00;;;17.30;93.80;;;;;;4017266;29;20064;-64
2022/10/17 10:21:16;;;;;;;0.25;0.25;;;17.30;93.90;;;;;;4028864;29;20056;-63
2022/10/17 10:24:06;;;;;;;0.00;0.00;;;17.30;93.90;;;;;;4029387;29;20148;-64
2022/10/17 10:26:49;;;;;;;0.35;0.35;;;17.30;94.00;;;;;;4029107;29;20412;-65
2022/10/17 10:29:32;;;;;;;0.82;0.77;;;17.30;94.00;;;;;;4028854;29;20373;-64
2022/10/17 10:32:21;;;;;;;0.00;0.00;;;17.30;94.10;;;;;;4029407;29;20068;-64
2022/10/17 10:35:07;;;;;;;0.00;0.00;;;17.30;94.10;;;;;;4029066;29;20052;-64
2022/10/17 10:37:51;;;;;;;0.10;0.10;;;17.30;94.10;;;;;;4029196;29;20143;-64
2022/10/17 10:40:36;;;;;;;0.00;0.00;;;17.30;94.10;;;;;;4029307;29;20051;-64
2022/10/17 10:43:26;;;;;;;0.00;0.00;;;17.30;94.10;;;;;;4027536;29;20717;-64
2022/10/17 10:46:18;;;;;;;0.00;0.00;;;17.30;94.10;;;;;;4028952;29;20055;-64
2022/10/17 10:49:00;;;;;;;0.00;0.00;;;17.30;94.10;;;;;;4028281;29;20143;-63
2022/10/17 10:51:46;;;;;;;0.00;0.00;;;17.30;94.00;;;;;;4028619;29;20749;-63
2022/10/17 10:54:32;;;;;;;0.20;0.20;;;17.30;94.00;;;;;;4029279;29;20091;-63
2022/10/17 10:57:19;;;;;;;4.85;2.08;;;17.30;94.00;;;;;;4029004;29;20182;-64
2022/10/17 11:00:08;;;;;;;0.22;0.22;;;17.30;94.00;;;;;;4028912;29;20055;-64
2022/10/17 11:02:59;;;;;;;0.15;0.15;;;17.30;93.90;;;;;;4029331;29;20112;-63
2022/10/17 11:05:46;;;;;;;0.57;0.57;;;17.30;93.90;;;;;;4028451;29;20064;-63
2022/10/17 11:08:33;;;;;;;0.00;0.00;;;17.30;93.90;;;;;;4028680;29;20064;-63
2022/10/17 11:11:22;;;;;;;0.00;0.00;;;17.30;93.80;;;;;;4028858;29;20503;-64
2022/10/17 11:14:09;;;;;;;0.40;0.40;;;17.30;93.80;;;;;;4028953;29;20192;-64
2022/10/17 11:16:59;;;;;;;0.00;0.00;;;17.30;93.80;;;;;;4028950;29;20209;-64
2022/10/17 11:19:45;;;;;;;0.35;0.35;;;17.30;93.80;;;;;;4028212;29;20052;-62
2022/10/17 11:22:29;;;;;;;0.00;0.00;;;17.30;93.80;;;;;;4028490;29;20077;-62
2022/10/17 11:25:24;;;;;;;0.00;0.00;;;17.30;93.80;;;;;;4028144;29;20132;-62
2022/10/17 11:28:14;;;;;;;0.32;0.32;;;17.30;93.70;;;;;;4011678;29;20064;-62
2022/10/17 11:30:59;;;;;;;0.08;0.08;;;17.30;93.70;;;;;;4028117;29;20108;-62
2022/10/17 11:33:46;;;;;;;0.00;0.00;;;17.40;93.70;;;;;;4017061;29;20064;-61
2022/10/17 11:36:29;;;;;;;0.00;0.00;;;17.30;93.70;;;;;;4028595;29;20171;-61
2022/10/17 11:39:17;;;;;;;0.00;0.00;;;17.30;93.70;;;;;;4027827;29;20432;-62
2022/10/17 11:42:05;;;;;;;0.55;0.35;;;17.40;94.10;;;;;;4016490;29;20058;-62
2022/10/17 11:44:50;;;;;;;0.30;0.30;;;17.40;94.30;;;;;;4028095;29;20056;-64
2022/10/17 11:47:38;;;;;;;0.40;0.40;;;17.40;94.40;;;;;;4027978;29;20228;-65
2022/10/17 11:50:24;;;;;;;0.00;0.00;;;17.40;94.30;;;;;;4015564;29;20059;-65
2022/10/17 11:53:28;;;;;;;0.00;0.00;;;17.40;94.30;;;;;;4027501;29;20107;-62
2022/10/17 11:56:11;;;;;;;0.35;0.35;;;17.40;94.20;;;;;;4028301;29;20377;-62
2022/10/17 11:59:12;;;;;;;0.00;0.00;;;17.40;94.10;;;;;;4016978;29;20193;-62
2022/10/17 12:01:57;;;;;;;0.43;0.43;;;17.40;94.10;;;;;;4027367;29;20095;-62
2022/10/17 12:04:53;;;;;;;0.28;0.28;;;17.40;94.10;;;;;;4026861;29;20064;-62
2022/10/17 12:07:45;;;;;;;0.47;0.47;;;17.40;94.10;;;;;;4028318;29;20100;-62
2022/10/17 12:10:35;;;;;;;0.20;0.20;;;17.40;94.10;;;;;;4027537;29;20866;-62
2022/10/17 12:13:48;;;;;;;0.10;0.10;;;17.40;94.10;;;;;;4028643;29;19938;-62
2022/10/17 12:16:52;;;;;;;2.17;2.05;;;17.40;94.10;;;;;;4027279;29;20060;-62
2022/10/17 12:19:35;;;;;;;0.10;0.10;;;17.40;94.10;;;;;;4016532;29;20104;-62
2022/10/17 12:22:22;;;;;;;0.10;0.10;;;17.40;94.10;;;;;;4027849;29;20128;-62
2022/10/17 12:25:04;;;;;;;0.28;0.28;;;17.40;94.20;;;;;;4028082;29;20113;-62
2022/10/17 12:27:48;;;;;;;0.93;0.93;;;17.40;94.30;;;;;;4026281;29;20144;-62
2022/10/17 12:30:29;;;;;;;0.10;0.10;;;17.40;94.30;;;;;;4026800;29;20056;-62
2022/10/17 12:33:21;;;;;;;0.00;0.00;;;17.40;94.40;;;;;;4027591;29;20093;-61
2022/10/17 12:36:45;;;;;;;0.38;0.38;;;17.40;94.40;;;;;;4015746;29;20400;-61
2022/10/17 12:39:51;;;;;;;0.38;0.38;;;17.40;94.30;;;;;;4027656;29;20140;-61
2022/10/17 12:42:46;;;;;;;0.00;0.00;;;17.40;94.50;;;;;;4017039;29;20192;-61
2022/10/17 12:45:46;;;;;;;0.20;0.20;;;17.40;94.40;;;;;;4022839;29;20068;-63
2022/10/17 12:49:13;;;;;;;0.45;0.45;;;17.50;94.40;;;;;;4027567;29;20150;-62
2022/10/17 12:52:20;;;;;;;0.63;0.55;;;17.40;94.30;;;;;;4025961;29;20451;-62
2022/10/17 12:55:13;;;;;;;0.00;0.00;;;17.50;94.30;;;;;;4026601;29;20056;-62
2022/10/17 12:57:59;;;;;;;3.53;2.08;;;17.50;94.60;;;;;;4027222;29;20416;-65
2022/10/17 13:00:44;;;;;;;0.50;0.50;;;17.50;94.20;;;;;;4016090;29;20071;-62
2022/10/17 13:03:43;;;;;;;0.22;0.22;;;17.50;94.30;;;;;;4016258;29;20084;-62
2022/10/17 13:06:28;;;;;;;0.43;0.43;;;17.50;94.20;;;;;;4027160;29;20108;-62
2022/10/17 13:09:24;;;;;;;21.83;2.65;;;17.50;94.20;;;;;;4026516;29;20556;-61
2022/10/17 13:12:11;;;;;;;0.10;0.10;;;17.50;94.20;;;;;;4028388;29;20415;-62
2022/10/17 13:14:53;;;;;;;0.93;0.93;;;17.50;94.20;;;;;;4029055;29;20076;-61
2022/10/17 13:17:34;;;;;;;0.00;0.00;;;17.50;94.20;;;;;;4030088;29;20084;-62
2022/10/17 13:20:22;;;;;;;0.00;0.00;;;17.50;94.10;;;;;;4018592;29;20089;-63
2022/10/17 13:23:04;;;;;;;4.28;0.75;;;17.50;94.10;;;;;;4031027;29;20117;-63
2022/10/17 13:25:47;;;;;;;0.00;0.00;;;17.50;94.10;;;;;;4030736;29;20060;-63
2022/10/17 13:28:28;;;;;;;0.00;0.00;;;17.50;94.20;;;;;;4030529;29;20055;-63
2022/10/17 13:31:30;;;;;;;0.45;0.45;;;17.50;94.10;;;;;;4030862;29;20100;-63
2022/10/17 13:34:17;;;;;;;0.00;0.00;;;17.60;94.20;;;;;;4030456;29;20060;-63
2022/10/17 13:37:01;;;;;;;0.10;0.10;;;17.50;94.20;;;;;;4031239;29;20633;-63
2022/10/17 13:39:45;;;;;;;0.00;0.00;;;17.50;94.20;;;;;;4031236;29;20665;-63
2022/10/17 13:42:40;;;;;;;0.70;0.70;;;17.60;94.70;;;;;;4029859;29;20381;-63
2022/10/17 13:45:29;;;;;;;0.35;0.30;;;17.60;94.30;;;;;;4031051;29;20488;-63
2022/10/17 13:48:20;;;;;;;0.00;0.00;;;17.60;94.40;;;;;;4030648;29;20731;-63
2022/10/17 13:51:03;;;;;;;0.23;0.23;;;17.60;94.40;;;;;;4030619;29;20069;-63
2022/10/17 13:53:48;;;;;;;0.00;0.00;;;17.60;94.40;;;;;;4030022;29;20288;-63
2022/10/17 13:56:30;;;;;;;2.45;0.70;;;17.60;94.70;;;;;;4030902;29;20686;-63
2022/10/17 13:59:22;;;;;;;0.28;0.10;;;17.50;94.30;;;;;;4030322;29;20081;-63
2022/10/17 14:02:03;;;;;;;0.00;0.00;;;17.60;94.30;;;;;;4030212;29;20127;-63
2022/10/17 14:04:44;;;;;;;0.20;0.20;;;17.60;94.30;;;;;;4030902;29;20060;-63
2022/10/17 14:07:49;;;;;;;0.00;0.00;;;17.50;94.30;;;;;;4030444;29;20056;-63
2022/10/17 14:10:51;;;;;;;0.05;0.05;;;17.60;94.20;;;;;;4030404;29;20396;-63
2022/10/17 14:13:34;;;;;;;0.00;0.00;;;17.60;94.30;;;;;;4030145;29;20072;-63
2022/10/17 14:16:17;;;;;;;0.00;0.00;;;17.50;94.50;;;;;;4030743;29;20063;-63
2022/10/17 14:18:58;;;;;;;0.10;0.10;;;17.60;94.90;;;;;;4029785;29;20055;-63
2022/10/17 14:21:39;;;;;;;1.48;1.17;;;17.60;95.30;;;;;;4029397;29;20067;-63
2022/10/17 14:24:30;;;;;;;0.00;0.00;;;17.60;95.60;;;;;;4029520;29;20064;-63
2022/10/17 14:27:26;;;;;;;3.60;0.90;;;17.60;95.70;;;;;;4030041;29;20059;-63
2022/10/17 14:30:32;;;;;;;1.85;0.57;;;17.60;96.10;;;;;;4030150;29;20448;-63
2022/10/17 14:33:35;;;;;;;1.25;1.25;;;17.60;95.50;;;;;;4029499;29;21093;-63
2022/10/17 14:36:17;;;;;;;12.50;1.80;;;17.60;95.40;;;;;;4030161;29;20052;-63